Time;durP1;ratioP1;P1;durP2;ratioP2;P2;SDS_P1;SDS_P2;PMS_P1;PMS_P2;Temp;Humidity;BMP_temperature;BMP_pressure;BME280_temperature;BME280_humidity;BME280_pressure;Samples;Min_cycle;Max_cycle;Signal;HPM_P1;HPM_P2
2022/03/15 00:00:33;;;;;;;3.85;1.60;;;;;;;;;;5066772;28;20494;-68
2022/03/15 00:02:59;;;;;;;3.65;1.60;;;;;;;;;;5083863;28;20048;-68
2022/03/15 00:05:25;;;;;;;4.45;1.77;;;;;;;;;;5068032;28;20055;-68
2022/03/15 00:07:51;;;;;;;4.60;1.70;;;;;;;;;;5085474;28;20044;-68
2022/03/15 00:10:18;;;;;;;5.25;2.00;;;;;;;;;;5085984;28;20038;-68
2022/03/15 00:12:45;;;;;;;4.63;1.50;;;;;;;;;;5067677;28;20154;-68
2022/03/15 00:15:11;;;;;;;4.30;1.70;;;;;;;;;;5085194;28;20094;-68
2022/03/15 00:17:38;;;;;;;3.78;1.35;;;;;;;;;;5085400;28;20055;-68
2022/03/15 00:20:06;;;;;;;3.63;1.90;;;;;;;;;;5085593;28;20454;-68
2022/03/15 00:22:34;;;;;;;3.25;1.55;;;;;;;;;;5083095;28;20449;-68
2022/03/15 00:25:02;;;;;;;3.45;1.52;;;;;;;;;;5085724;28;20047;-68
2022/03/15 00:27:28;;;;;;;3.30;1.48;;;;;;;;;;5084997;28;20056;-69
2022/03/15 00:29:54;;;;;;;5.75;1.67;;;;;;;;;;5084973;28;20405;-68
2022/03/15 00:32:20;;;;;;;3.47;1.60;;;;;;;;;;5085436;28;20078;-68
2022/03/15 00:34:49;;;;;;;3.33;1.30;;;;;;;;;;5085356;28;20052;-68
2022/03/15 00:37:15;;;;;;;3.58;1.52;;;;;;;;;;5067079;28;20040;-69
2022/03/15 00:39:42;;;;;;;4.25;1.55;;;;;;;;;;5084859;28;20470;-68
2022/03/15 00:42:08;;;;;;;6.43;1.50;;;;;;;;;;5065633;28;20087;-71
2022/03/15 00:44:34;;;;;;;10.80;1.85;;;;;;;;;;5067576;28;20467;-69
2022/03/15 00:47:01;;;;;;;4.32;1.45;;;;;;;;;;5085284;28;20139;-69
2022/03/15 00:49:27;;;;;;;3.85;1.40;;;;;;;;;;5085027;28;20040;-68
2022/03/15 00:51:53;;;;;;;6.18;1.92;;;;;;;;;;5085527;28;20059;-69
2022/03/15 00:54:20;;;;;;;6.05;1.60;;;;;;;;;;5065562;28;20210;-69
2022/03/15 00:56:46;;;;;;;4.85;1.40;;;;;;;;;;5066854;28;20075;-69
2022/03/15 00:59:13;;;;;;;4.75;1.60;;;;;;;;;;5085287;28;20036;-68
2022/03/15 01:01:39;;;;;;;2.50;1.38;;;;;;;;;;5065455;28;20952;-69
2022/03/15 01:04:05;;;;;;;6.38;1.98;;;;;;;;;;5065205;28;20124;-69
2022/03/15 01:06:31;;;;;;;2.58;1.30;;;;;;;;;;5085805;28;20456;-69
2022/03/15 01:08:57;;;;;;;3.75;1.30;;;;;;;;;;5089742;28;20048;-69
2022/03/15 01:11:23;;;;;;;5.10;1.23;;;;;;;;;;5070377;28;20044;-69
2022/03/15 01:13:49;;;;;;;4.85;1.45;;;;;;;;;;5088873;28;20583;-69
2022/03/15 01:16:15;;;;;;;9.30;1.80;;;;;;;;;;5070751;28;20498;-69
2022/03/15 01:18:41;;;;;;;5.13;1.65;;;;;;;;;;5089379;28;20169;-70
2022/03/15 01:21:08;;;;;;;4.55;1.70;;;;;;;;;;5088910;28;20097;-69
2022/03/15 01:23:34;;;;;;;4.05;1.40;;;;;;;;;;5086988;28;20043;-69
2022/03/15 01:26:01;;;;;;;4.25;1.50;;;;;;;;;;5089193;28;20131;-69
2022/03/15 01:28:29;;;;;;;3.83;1.30;;;;;;;;;;5089473;28;20067;-69
2022/03/15 01:30:55;;;;;;;3.30;1.30;;;;;;;;;;5088873;28;20047;-70
2022/03/15 01:33:21;;;;;;;3.25;1.27;;;;;;;;;;5089265;28;20370;-69
2022/03/15 01:35:47;;;;;;;3.20;1.60;;;;;;;;;;5089067;28;20129;-70
2022/03/15 01:38:13;;;;;;;4.85;1.48;;;;;;;;;;5088902;28;20044;-70
2022/03/15 01:40:39;;;;;;;4.07;1.52;;;;;;;;;;5088937;28;20116;-69
2022/03/15 01:43:05;;;;;;;32.28;1.92;;;;;;;;;;5089182;28;20097;-69
2022/03/15 01:45:32;;;;;;;5.07;1.38;;;;;;;;;;5070617;28;20122;-69
2022/03/15 01:47:58;;;;;;;4.78;1.63;;;;;;;;;;5089055;28;20044;-69
2022/03/15 01:50:24;;;;;;;8.40;1.92;;;;;;;;;;5089013;28;20052;-69
2022/03/15 01:52:50;;;;;;;5.35;1.45;;;;;;;;;;5088652;28;20469;-69
2022/03/15 01:55:17;;;;;;;3.80;1.45;;;;;;;;;;5088813;28;20043;-69
2022/03/15 01:57:43;;;;;;;3.33;1.40;;;;;;;;;;5088848;28;20104;-69
2022/03/15 02:00:09;;;;;;;5.38;1.60;;;;;;;;;;5070443;28;20043;-69
2022/03/15 02:02:35;;;;;;;3.53;1.42;;;;;;;;;;5088747;28;20055;-69
2022/03/15 02:05:01;;;;;;;4.30;1.55;;;;;;;;;;5086697;28;20040;-69
2022/03/15 02:07:27;;;;;;;3.92;1.50;;;;;;;;;;5088642;28;20519;-69
2022/03/15 02:09:54;;;;;;;7.40;1.65;;;;;;;;;;5070685;28;20239;-69
2022/03/15 02:12:20;;;;;;;2.92;1.30;;;;;;;;;;5088259;28;20051;-69
2022/03/15 02:14:46;;;;;;;4.10;1.23;;;;;;;;;;5088588;28;20048;-68
2022/03/15 02:17:12;;;;;;;3.25;1.40;;;;;;;;;;5088722;28;20166;-68
2022/03/15 02:19:38;;;;;;;4.35;1.50;;;;;;;;;;5053189;28;20520;-68
2022/03/15 02:22:04;;;;;;;2.70;1.60;;;;;;;;;;5088677;28;20093;-68
2022/03/15 02:24:30;;;;;;;3.50;1.45;;;;;;;;;;5053202;28;20071;-68
2022/03/15 02:26:57;;;;;;;2.85;1.13;;;;;;;;;;5088407;28;20032;-68
2022/03/15 02:29:23;;;;;;;2.83;1.30;;;;;;;;;;5068715;28;20044;-68
2022/03/15 02:31:49;;;;;;;3.40;1.25;;;;;;;;;;5088421;28;20056;-68
2022/03/15 02:34:18;;;;;;;4.10;1.40;;;;;;;;;;5087775;28;20066;-68
2022/03/15 02:36:44;;;;;;;3.55;1.40;;;;;;;;;;5086733;28;20055;-68
2022/03/15 02:39:10;;;;;;;2.60;1.30;;;;;;;;;;5088102;28;20123;-68
2022/03/15 02:41:37;;;;;;;2.67;1.58;;;;;;;;;;5069239;28;20048;-68
2022/03/15 02:44:03;;;;;;;3.03;1.15;;;;;;;;;;5069905;28;20052;-68
2022/03/15 02:46:29;;;;;;;4.65;1.45;;;;;;;;;;5087475;28;20044;-68
2022/03/15 02:48:56;;;;;;;2.80;1.17;;;;;;;;;;5087859;28;20129;-68
2022/03/15 02:51:22;;;;;;;3.65;1.40;;;;;;;;;;5087985;28;20116;-68
2022/03/15 02:53:51;;;;;;;3.70;1.30;;;;;;;;;;5087665;28;20100;-68
2022/03/15 02:56:17;;;;;;;5.95;1.30;;;;;;;;;;5085981;28;20218;-69
2022/03/15 02:58:43;;;;;;;2.58;1.10;;;;;;;;;;5088098;28;20044;-69
2022/03/15 03:01:09;;;;;;;3.70;1.33;;;;;;;;;;5088107;28;20127;-69
2022/03/15 03:03:36;;;;;;;2.42;1.08;;;;;;;;;;5087212;28;20086;-69
2022/03/15 03:06:02;;;;;;;4.85;1.17;;;;;;;;;;5087397;28;20040;-69
2022/03/15 03:08:28;;;;;;;3.60;1.55;;;;;;;;;;5069111;28;20040;-68
2022/03/15 03:10:58;;;;;;;3.60;1.38;;;;;;;;;;5086510;28;20131;-68
2022/03/15 03:13:27;;;;;;;2.17;1.10;;;;;;;;;;5086713;28;20090;-68
2022/03/15 03:15:58;;;;;;;3.42;1.58;;;;;;;;;;5068431;28;20040;-68
2022/03/15 03:18:25;;;;;;;3.15;1.25;;;;;;;;;;5068927;28;20052;-68
2022/03/15 03:20:51;;;;;;;2.78;1.33;;;;;;;;;;5068575;28;20564;-68
2022/03/15 03:23:17;;;;;;;2.88;1.20;;;;;;;;;;5057730;28;20143;-68
2022/03/15 03:25:44;;;;;;;2.97;1.20;;;;;;;;;;5086759;28;20437;-68
2022/03/15 03:28:12;;;;;;;2.85;1.27;;;;;;;;;;5086236;28;21354;-68
2022/03/15 03:30:38;;;;;;;3.03;1.38;;;;;;;;;;5083975;28;20534;-68
2022/03/15 03:33:04;;;;;;;3.63;1.20;;;;;;;;;;5086047;28;20143;-68
2022/03/15 03:35:30;;;;;;;3.47;1.77;;;;;;;;;;5086383;28;20052;-68
2022/03/15 03:37:56;;;;;;;2.63;1.05;;;;;;;;;;5086159;28;20085;-68
2022/03/15 03:40:22;;;;;;;4.00;1.30;;;;;;;;;;5084330;28;20131;-68
2022/03/15 03:42:48;;;;;;;4.18;1.60;;;;;;;;;;5085595;28;20044;-69
2022/03/15 03:45:14;;;;;;;3.00;1.10;;;;;;;;;;5086065;28;20590;-69
2022/03/15 03:47:40;;;;;;;2.08;1.00;;;;;;;;;;5085925;28;20059;-69
2022/03/15 03:50:09;;;;;;;2.20;1.15;;;;;;;;;;5086405;28;20036;-69
2022/03/15 03:52:35;;;;;;;3.28;1.38;;;;;;;;;;5085945;28;20324;-69
2022/03/15 03:55:02;;;;;;;2.42;1.30;;;;;;;;;;5068594;28;20067;-69
2022/03/15 03:57:29;;;;;;;2.70;1.15;;;;;;;;;;5085809;28;20040;-69
2022/03/15 03:59:55;;;;;;;3.17;1.20;;;;;;;;;;5084537;28;20048;-68
2022/03/15 04:02:21;;;;;;;3.10;1.23;;;;;;;;;;5068638;28;20048;-72
2022/03/15 04:04:47;;;;;;;8.25;1.73;;;;;;;;;;5086453;28;20044;-69
2022/03/15 04:07:14;;;;;;;4.45;1.40;;;;;;;;;;5086083;28;20046;-69
2022/03/15 04:09:40;;;;;;;4.22;1.38;;;;;;;;;;5067163;28;20071;-70
2022/03/15 04:12:07;;;;;;;6.90;1.92;;;;;;;;;;5068028;28;20090;-69
2022/03/15 04:14:36;;;;;;;17.15;2.20;;;;;;;;;;5086144;28;20123;-69
2022/03/15 04:17:03;;;;;;;6.72;1.73;;;;;;;;;;5086145;28;20482;-69
2022/03/15 04:19:30;;;;;;;5.50;1.52;;;;;;;;;;5086403;28;20410;-69
2022/03/15 04:21:56;;;;;;;6.30;1.30;;;;;;;;;;5086586;28;20051;-69
2022/03/15 04:24:23;;;;;;;4.78;1.40;;;;;;;;;;5086308;28;20048;-69
2022/03/15 04:26:49;;;;;;;8.27;2.22;;;;;;;;;;5085326;28;20055;-69
2022/03/15 04:29:15;;;;;;;5.68;1.33;;;;;;;;;;5067753;28;20047;-69
2022/03/15 04:31:41;;;;;;;7.82;1.30;;;;;;;;;;5086217;28;20098;-69
2022/03/15 04:34:07;;;;;;;4.70;1.20;;;;;;;;;;5086234;28;20075;-69
2022/03/15 04:36:35;;;;;;;3.72;1.70;;;;;;;;;;5085876;28;20058;-69
2022/03/15 04:39:01;;;;;;;10.35;1.40;;;;;;;;;;5084541;28;20566;-69
2022/03/15 04:41:28;;;;;;;6.28;1.30;;;;;;;;;;5068189;28;20063;-69
2022/03/15 04:43:54;;;;;;;5.30;1.88;;;;;;;;;;5090091;28;20058;-69
2022/03/15 04:46:20;;;;;;;3.92;1.48;;;;;;;;;;5090400;28;20080;-69
2022/03/15 04:48:46;;;;;;;3.67;1.30;;;;;;;;;;5090491;28;20043;-69
2022/03/15 04:51:13;;;;;;;4.65;1.38;;;;;;;;;;5089259;28;20048;-69
2022/03/15 04:53:39;;;;;;;3.60;1.40;;;;;;;;;;5090090;28;20052;-70
2022/03/15 04:56:06;;;;;;;4.80;1.20;;;;;;;;;;5089973;28;20436;-68
2022/03/15 04:58:32;;;;;;;3.53;1.30;;;;;;;;;;5087343;28;20119;-68
2022/03/15 05:00:58;;;;;;;3.08;1.40;;;;;;;;;;5089989;28;20055;-69
2022/03/15 05:03:24;;;;;;;2.75;1.30;;;;;;;;;;5090109;28;20048;-68
2022/03/15 05:05:50;;;;;;;2.53;1.20;;;;;;;;;;5089437;28;20043;-68
2022/03/15 05:08:17;;;;;;;2.72;1.33;;;;;;;;;;5090587;28;20071;-68
2022/03/15 05:13:28;;;;;;;1.98;1.13;;;;;;;;;;5088773;28;20135;-68
2022/03/15 05:15:54;;;;;;;3.03;1.20;;;;;;;;;;5089814;28;20097;-68
2022/03/15 05:18:20;;;;;;;2.67;1.35;;;;;;;;;;5089442;28;20044;-68
2022/03/15 05:20:47;;;;;;;4.85;1.10;;;;;;;;;;5089133;28;20071;-68
2022/03/15 05:23:13;;;;;;;4.55;1.40;;;;;;;;;;5089849;28;20076;-69
2022/03/15 05:25:39;;;;;;;3.55;1.40;;;;;;;;;;5089892;28;20048;-69
2022/03/15 05:28:12;;;;;;;3.42;1.27;;;;;;;;;;5070775;28;20075;-68
2022/03/15 05:30:38;;;;;;;1.98;1.02;;;;;;;;;;5088293;28;20123;-69
2022/03/15 05:33:04;;;;;;;2.50;1.20;;;;;;;;;;5089475;28;20051;-68
2022/03/15 05:35:31;;;;;;;4.78;1.85;;;;;;;;;;5070222;28;20067;-69
2022/03/15 05:37:57;;;;;;;2.58;1.20;;;;;;;;;;5089752;28;20043;-68
2022/03/15 05:40:23;;;;;;;2.83;1.23;;;;;;;;;;5089445;28;20513;-68
2022/03/15 05:42:49;;;;;;;1.40;0.90;;;;;;;;;;5088700;28;20172;-68
2022/03/15 05:45:15;;;;;;;4.35;1.25;;;;;;;;;;5089138;28;20501;-68
2022/03/15 05:47:41;;;;;;;2.63;1.23;;;;;;;;;;5088883;28;20048;-68
2022/03/15 05:50:07;;;;;;;3.10;1.40;;;;;;;;;;5089856;28;20565;-68
2022/03/15 05:52:33;;;;;;;2.75;1.23;;;;;;;;;;5088423;28;20048;-69
2022/03/15 05:54:59;;;;;;;2.60;1.20;;;;;;;;;;5088811;28;20383;-69
2022/03/15 05:57:26;;;;;;;4.30;1.67;;;;;;;;;;5089058;28;20051;-69
2022/03/15 05:59:52;;;;;;;3.78;1.30;;;;;;;;;;5089277;28;20055;-68
2022/03/15 06:02:18;;;;;;;4.03;1.60;;;;;;;;;;5070765;28;20054;-70
2022/03/15 06:04:44;;;;;;;10.13;1.73;;;;;;;;;;5089726;28;21222;-68
2022/03/15 06:07:10;;;;;;;13.40;2.00;;;;;;;;;;5089150;28;20448;-68
2022/03/15 06:09:36;;;;;;;9.00;1.42;;;;;;;;;;5088785;28;20557;-71
2022/03/15 06:12:03;;;;;;;11.82;1.95;;;;;;;;;;5088745;28;20043;-69
2022/03/15 06:14:29;;;;;;;3.92;1.52;;;;;;;;;;5088365;28;20066;-69
2022/03/15 06:16:55;;;;;;;7.57;1.95;;;;;;;;;;5088677;28;20071;-69
2022/03/15 06:19:25;;;;;;;5.63;1.73;;;;;;;;;;5070735;28;20047;-69
2022/03/15 06:21:51;;;;;;;4.35;1.77;;;;;;;;;;5088951;28;20429;-69
2022/03/15 06:24:17;;;;;;;10.52;1.80;;;;;;;;;;5088165;28;20130;-69
2022/03/15 06:26:44;;;;;;;8.40;1.40;;;;;;;;;;5088332;28;20277;-69
2022/03/15 06:29:10;;;;;;;4.63;1.38;;;;;;;;;;5089319;28;20108;-69
2022/03/15 06:31:37;;;;;;;3.72;1.50;;;;;;;;;;5088187;28;20036;-69
2022/03/15 06:34:07;;;;;;;3.63;1.52;;;;;;;;;;5088429;28;20067;-69
2022/03/15 06:36:37;;;;;;;;;;;;;;;;;;5068983;28;20048;-69
2022/03/15 06:39:03;;;;;;;5.13;1.73;;;;;;;;;;5088681;28;20010;-68
2022/03/15 06:41:30;;;;;;;4.93;1.60;;;;;;;;;;5087907;28;20044;-69
2022/03/15 06:43:56;;;;;;;6.25;1.50;;;;;;;;;;5086139;28;20147;-68
2022/03/15 06:46:23;;;;;;;3.47;1.65;;;;;;;;;;5088203;28;20359;-69
2022/03/15 06:48:49;;;;;;;4.43;1.40;;;;;;;;;;5088626;28;20177;-68
2022/03/15 06:51:15;;;;;;;3.88;1.88;;;;;;;;;;5087536;28;20044;-69
2022/03/15 06:53:41;;;;;;;4.18;1.48;;;;;;;;;;5085826;28;20040;-69
2022/03/15 06:56:08;;;;;;;5.13;1.67;;;;;;;;;;5088382;28;20096;-69
2022/03/15 06:58:34;;;;;;;2.95;1.27;;;;;;;;;;5068878;28;20465;-68
2022/03/15 07:01:00;;;;;;;5.45;1.60;;;;;;;;;;5087261;28;20123;-68
2022/03/15 07:03:27;;;;;;;5.75;1.50;;;;;;;;;;5087958;28;20054;-68
2022/03/15 07:05:53;;;;;;;6.07;1.60;;;;;;;;;;5067497;28;20397;-68
2022/03/15 07:08:19;;;;;;;4.28;1.50;;;;;;;;;;5088380;28;20119;-68
2022/03/15 07:10:46;;;;;;;9.60;1.70;;;;;;;;;;5086854;28;20051;-70
2022/03/15 07:13:12;;;;;;;6.55;2.03;;;;;;;;;;5087405;28;20044;-68
2022/03/15 07:15:38;;;;;;;6.93;1.33;;;;;;;;;;5087853;28;20410;-68
2022/03/15 07:18:04;;;;;;;4.97;1.60;;;;;;;;;;5069862;28;20505;-68
2022/03/15 07:20:30;;;;;;;8.15;1.90;;;;;;;;;;5087297;28;20462;-68
2022/03/15 07:22:56;;;;;;;6.65;1.77;;;;;;;;;;5087084;28;20047;-68
2022/03/15 07:25:22;;;;;;;9.50;1.65;;;;;;;;;;5069986;28;20185;-68
2022/03/15 07:27:48;;;;;;;5.03;1.38;;;;;;;;;;5089018;28;20043;-69
2022/03/15 07:30:15;;;;;;;9.32;1.77;;;;;;;;;;5071323;28;20048;-70
2022/03/15 07:32:41;;;;;;;4.43;1.73;;;;;;;;;;5088806;28;20080;-71
2022/03/15 07:35:07;;;;;;;3.80;1.58;;;;;;;;;;5088781;28;20056;-71
2022/03/15 07:37:33;;;;;;;7.78;2.00;;;;;;;;;;5089033;28;20056;-69
2022/03/15 07:39:59;;;;;;;6.15;2.00;;;;;;;;;;5089389;28;20048;-70
2022/03/15 07:42:26;;;;;;;5.05;1.50;;;;;;;;;;5088670;28;20101;-69
2022/03/15 07:44:52;;;;;;;7.03;1.55;;;;;;;;;;5053565;28;20139;-69
2022/03/15 07:47:18;;;;;;;8.25;1.60;;;;;;;;;;5070609;28;20059;-70
2022/03/15 07:49:47;;;;;;;4.70;1.55;;;;;;;;;;5088853;28;20036;-70
2022/03/15 07:52:13;;;;;;;4.57;1.30;;;;;;;;;;5088901;28;20105;-70
2022/03/15 07:54:39;;;;;;;4.85;1.48;;;;;;;;;;5088655;28;20044;-70
2022/03/15 07:57:07;;;;;;;2.55;1.35;;;;;;;;;;5088313;28;20043;-70
2022/03/15 07:59:33;;;;;;;3.33;1.40;;;;;;;;;;5088164;28;20124;-70
2022/03/15 08:01:59;;;;;;;2.97;1.50;;;;;;;;;;5070622;28;20044;-70
2022/03/15 08:04:25;;;;;;;3.40;1.65;;;;;;;;;;5088402;28;20047;-69
2022/03/15 08:06:51;;;;;;;3.50;1.50;;;;;;;;;;5088540;28;20356;-70
2022/03/15 08:09:17;;;;;;;4.18;1.42;;;;;;;;;;5070080;28;20135;-69
2022/03/15 08:11:45;;;;;;;5.90;1.48;;;;;;;;;;5053334;28;20090;-69
2022/03/15 08:14:12;;;;;;;3.97;1.53;;;;;;;;;;5088507;28;20043;-68
2022/03/15 08:16:38;;;;;;;14.00;2.10;;;;;;;;;;5088201;28;20089;-69
2022/03/15 08:19:04;;;;;;;9.45;1.88;;;;;;;;;;5087892;28;20054;-69
2022/03/15 08:21:31;;;;;;;7.63;1.85;;;;;;;;;;5069717;28;20044;-70
2022/03/15 08:23:57;;;;;;;4.68;1.38;;;;;;;;;;5088428;28;20417;-68
2022/03/15 08:26:27;;;;;;;4.28;1.40;;;;;;;;;;5088074;28;20056;-68
2022/03/15 08:28:53;;;;;;;4.38;1.50;;;;;;;;;;5070253;28;20116;-68
2022/03/15 08:31:19;;;;;;;6.00;1.58;;;;;;;;;;5087971;28;20036;-68
2022/03/15 08:33:45;;;;;;;3.92;1.63;;;;;;;;;;5087392;28;20056;-69
2022/03/15 08:36:13;;;;;;;6.45;1.55;;;;;;;;;;5088399;28;20056;-68
2022/03/15 08:38:39;;;;;;;2.88;1.05;;;;;;;;;;5070296;28;20048;-69
2022/03/15 08:41:06;;;;;;;8.65;1.50;;;;;;;;;;5052815;28;20043;-69
2022/03/15 08:43:32;;;;;;;3.33;1.10;;;;;;;;;;5088146;28;20044;-69
2022/03/15 08:45:58;;;;;;;4.75;1.63;;;;;;;;;;5088098;28;20052;-69
2022/03/15 08:48:24;;;;;;;6.72;1.70;;;;;;;;;;5087998;28;20433;-69
2022/03/15 08:50:51;;;;;;;4.95;1.50;;;;;;;;;;5087932;28;20063;-69
2022/03/15 08:53:19;;;;;;;26.67;1.80;;;;;;;;;;5086882;28;20055;-71
2022/03/15 08:55:45;;;;;;;4.78;1.65;;;;;;;;;;5087964;28;20082;-69
2022/03/15 08:58:11;;;;;;;6.00;2.03;;;;;;;;;;5087729;28;20451;-70
2022/03/15 09:00:37;;;;;;;4.68;1.95;;;;;;;;;;5069363;28;20055;-71
2022/03/15 09:03:03;;;;;;;3.65;1.60;;;;;;;;;;5087634;28;20040;-69
2022/03/15 09:05:29;;;;;;;3.75;1.90;;;;;;;;;;5087957;28;20078;-70
2022/03/15 09:07:55;;;;;;;5.43;2.03;;;;;;;;;;5087627;28;20506;-70
2022/03/15 09:10:22;;;;;;;5.55;1.85;;;;;;;;;;5053185;28;20063;-70
2022/03/15 09:12:52;;;;;;;;;;;;;;;;;;5087195;28;20504;-70
2022/03/15 09:15:19;;;;;;;3.20;1.65;;;;;;;;;;5069185;28;20409;-71
2022/03/15 09:17:45;;;;;;;4.25;2.03;;;;;;;;;;5087399;28;20052;-69
2022/03/15 09:20:11;;;;;;;3.88;1.92;;;;;;;;;;5087222;28;20040;-71
2022/03/15 09:22:37;;;;;;;3.95;2.20;;;;;;;;;;5086978;28;20056;-73
2022/03/15 09:25:04;;;;;;;3.60;2.00;;;;;;;;;;5052115;28;20131;-72
2022/03/15 09:27:30;;;;;;;3.40;2.15;;;;;;;;;;5087318;28;20047;-72
2022/03/15 09:29:58;;;;;;;6.45;2.70;;;;;;;;;;5090571;28;20514;-73
2022/03/15 09:32:25;;;;;;;4.53;2.20;;;;;;;;;;5090797;28;20052;-74
2022/03/15 09:34:51;;;;;;;3.40;1.98;;;;;;;;;;5055497;28;20048;-71
2022/03/15 09:37:17;;;;;;;4.63;2.75;;;;;;;;;;5090791;28;20117;-72
2022/03/15 09:39:44;;;;;;;4.25;2.55;;;;;;;;;;5072008;28;20138;-73
2022/03/15 09:42:10;;;;;;;4.72;2.20;;;;;;;;;;5072314;28;20056;-73
2022/03/15 09:44:38;;;;;;;7.05;2.22;;;;;;;;;;5055339;28;20048;-74
2022/03/15 09:47:07;;;;;;;4.85;2.20;;;;;;;;;;5072680;28;20048;-74
2022/03/15 09:49:34;;;;;;;4.70;2.22;;;;;;;;;;5089787;28;20047;-73
2022/03/15 09:52:01;;;;;;;3.47;2.08;;;;;;;;;;5072475;28;20079;-74
2022/03/15 09:54:30;;;;;;;4.30;2.35;;;;;;;;;;5090411;28;20040;-73
2022/03/15 09:56:56;;;;;;;4.22;2.05;;;;;;;;;;5070446;28;20040;-72
2022/03/15 09:59:23;;;;;;;3.90;2.10;;;;;;;;;;5089011;28;20083;-72
2022/03/15 10:01:51;;;;;;;3.72;2.08;;;;;;;;;;5094204;28;20484;-74
2022/03/15 10:04:17;;;;;;;4.00;2.38;;;;;;;;;;5090254;28;20048;-74
2022/03/15 10:06:44;;;;;;;5.28;2.20;;;;;;;;;;5090035;28;20044;-74
2022/03/15 10:09:11;;;;;;;4.75;2.45;;;;;;;;;;5064996;28;20322;-74
2022/03/15 10:11:37;;;;;;;3.85;1.98;;;;;;;;;;5069307;28;20044;-73
2022/03/15 10:14:04;;;;;;;5.55;2.30;;;;;;;;;;5052216;28;20052;-73
2022/03/15 10:16:32;;;;;;;4.55;2.38;;;;;;;;;;5051435;28;20068;-72
2022/03/15 10:18:58;;;;;;;7.53;2.30;;;;;;;;;;5069368;28;20127;-72
2022/03/15 10:21:25;;;;;;;5.93;2.40;;;;;;;;;;5069912;28;20131;-72
2022/03/15 10:23:54;;;;;;;4.97;2.15;;;;;;;;;;5080736;28;20063;-73
2022/03/15 10:26:24;;;;;;;4.35;2.20;;;;;;;;;;5072101;28;20098;-73
2022/03/15 10:28:53;;;;;;;3.13;2.10;;;;;;;;;;5088744;28;20437;-72
2022/03/15 10:31:21;;;;;;;3.97;2.17;;;;;;;;;;5074758;28;20187;-72
2022/03/15 10:33:47;;;;;;;4.03;2.42;;;;;;;;;;5071473;28;20571;-72
2022/03/15 10:36:17;;;;;;;5.45;2.60;;;;;;;;;;5074414;28;20080;-71
2022/03/15 10:38:47;;;;;;;3.80;2.17;;;;;;;;;;5069933;28;20073;-72
2022/03/15 10:41:16;;;;;;;4.80;2.47;;;;;;;;;;5072665;28;20170;-72
2022/03/15 10:43:43;;;;;;;4.40;2.33;;;;;;;;;;5089285;28;20082;-72
2022/03/15 10:46:10;;;;;;;4.88;2.88;;;;;;;;;;5089130;28;20112;-73
2022/03/15 10:48:37;;;;;;;5.72;2.88;;;;;;;;;;5089000;28;20081;-72
2022/03/15 10:51:09;;;;;;;5.38;2.72;;;;;;;;;;5088543;28;20575;-72
2022/03/15 10:53:42;;;;;;;4.90;2.90;;;;;;;;;;5068639;28;20525;-74
2022/03/15 10:56:19;;;;;;;4.70;2.85;;;;;;;;;;5070570;28;20931;-72
2022/03/15 10:58:50;;;;;;;6.28;3.05;;;;;;;;;;5088801;28;20406;-73
2022/03/15 11:01:23;;;;;;;7.47;3.45;;;;;;;;;;5088971;28;20056;-72
2022/03/15 11:03:53;;;;;;;6.28;3.30;;;;;;;;;;5070422;28;20052;-71
2022/03/15 11:06:48;;;;;;;5.38;3.13;;;;;;;;;;5089155;28;20233;-73
2022/03/15 11:09:16;;;;;;;6.72;3.15;;;;;;;;;;5075615;28;20059;-73
2022/03/15 11:11:42;;;;;;;6.18;3.00;;;;;;;;;;5088516;28;20039;-73
2022/03/15 11:14:09;;;;;;;5.35;3.30;;;;;;;;;;5089236;28;20048;-72
2022/03/15 11:16:36;;;;;;;4.90;3.28;;;;;;;;;;5089404;28;20130;-73
2022/03/15 11:19:03;;;;;;;5.80;3.25;;;;;;;;;;5071486;28;20143;-71
2022/03/15 11:21:32;;;;;;;5.80;3.33;;;;;;;;;;5089259;28;20464;-73
2022/03/15 11:23:59;;;;;;;5.75;3.75;;;;;;;;;;5089130;28;20048;-72
2022/03/15 11:26:27;;;;;;;6.05;3.50;;;;;;;;;;5088047;28;20040;-71
2022/03/15 11:28:54;;;;;;;5.97;3.50;;;;;;;;;;5089135;28;20054;-72
2022/03/15 11:31:20;;;;;;;4.75;3.40;;;;;;;;;;5087633;28;20487;-73
2022/03/15 11:33:47;;;;;;;5.82;3.50;;;;;;;;;;5087265;28;20059;-70
2022/03/15 11:36:13;;;;;;;5.45;3.70;;;;;;;;;;5088354;28;20083;-70
2022/03/15 11:38:41;;;;;;;5.40;3.55;;;;;;;;;;5088263;28;20051;-70
2022/03/15 11:41:10;;;;;;;6.65;3.78;;;;;;;;;;5088750;28;20040;-70
2022/03/15 11:43:50;;;;;;;5.88;3.92;;;;;;;;;;5088568;28;20109;-70
2022/03/15 11:46:16;;;;;;;5.85;3.70;;;;;;;;;;5054943;28;20482;-70
2022/03/15 11:48:42;;;;;;;6.57;3.80;;;;;;;;;;5090006;28;20054;-70
2022/03/15 11:51:13;;;;;;;6.80;4.32;;;;;;;;;;5088741;28;20039;-69
2022/03/15 11:53:54;;;;;;;7.07;4.10;;;;;;;;;;5070863;28;20517;-70
2022/03/15 11:56:20;;;;;;;7.88;4.43;;;;;;;;;;5088373;28;20052;-70
2022/03/15 11:58:53;;;;;;;7.85;3.92;;;;;;;;;;5086662;28;20051;-70
2022/03/15 12:01:21;;;;;;;6.63;4.30;;;;;;;;;;5070041;28;20139;-69
2022/03/15 12:03:48;;;;;;;6.85;4.45;;;;;;;;;;5069117;28;20048;-68
2022/03/15 12:06:32;;;;;;;5.78;3.95;;;;;;;;;;5087161;28;20071;-69
2022/03/15 12:09:03;;;;;;;7.85;4.65;;;;;;;;;;5078542;28;20106;-68
2022/03/15 12:11:39;;;;;;;6.95;5.07;;;;;;;;;;5087499;28;21584;-69
2022/03/15 12:14:16;;;;;;;7.75;4.65;;;;;;;;;;5069246;28;20083;-70
2022/03/15 12:16:44;;;;;;;6.22;4.07;;;;;;;;;;5086344;28;20084;-69
2022/03/15 12:22:02;;;;;;;8.63;4.13;;;;;;;;;;5087972;28;20362;-69
2022/03/15 12:24:32;;;;;;;7.18;3.85;;;;;;;;;;5086846;28;20048;-70
2022/03/15 12:27:05;;;;;;;7.30;3.75;;;;;;;;;;5088039;28;20359;-70
2022/03/15 12:29:32;;;;;;;6.45;4.28;;;;;;;;;;5054442;28;20428;-70
2022/03/15 12:32:10;;;;;;;5.20;3.50;;;;;;;;;;5088201;28;20430;-70
2022/03/15 12:34:36;;;;;;;7.68;3.97;;;;;;;;;;5088385;28;20048;-70
2022/03/15 12:37:02;;;;;;;7.63;3.78;;;;;;;;;;5087178;28;20056;-70
2022/03/15 12:39:29;;;;;;;7.50;3.80;;;;;;;;;;5087715;28;20052;-70
2022/03/15 12:42:12;;;;;;;6.35;3.72;;;;;;;;;;5087818;28;20139;-70
2022/03/15 12:44:44;;;;;;;5.90;3.50;;;;;;;;;;5087852;28;20510;-70
2022/03/15 12:47:10;;;;;;;5.97;3.40;;;;;;;;;;5069318;28;20048;-70
2022/03/15 12:49:36;;;;;;;4.80;3.20;;;;;;;;;;5068648;28;20516;-69
2022/03/15 12:52:13;;;;;;;5.88;3.45;;;;;;;;;;5086885;28;20577;-70
2022/03/15 12:54:39;;;;;;;5.43;3.30;;;;;;;;;;5087446;28;20470;-68
2022/03/15 12:57:14;;;;;;;5.18;3.50;;;;;;;;;;5086632;28;20134;-69
2022/03/15 12:59:40;;;;;;;5.97;3.15;;;;;;;;;;5087370;28;20052;-69
2022/03/15 13:02:07;;;;;;;6.30;3.28;;;;;;;;;;5069640;28;20059;-69
2022/03/15 13:04:35;;;;;;;5.00;3.28;;;;;;;;;;5091391;28;20137;-70
2022/03/15 13:07:04;;;;;;;5.72;3.45;;;;;;;;;;5091224;28;20465;-70
2022/03/15 13:09:30;;;;;;;5.35;3.28;;;;;;;;;;5090930;28;20162;-69
2022/03/15 13:11:56;;;;;;;4.80;2.95;;;;;;;;;;5090585;28;20070;-69
2022/03/15 13:14:27;;;;;;;6.78;3.45;;;;;;;;;;5091614;28;20426;-70
2022/03/15 13:16:53;;;;;;;6.30;3.60;;;;;;;;;;5091213;28;20051;-72
2022/03/15 13:19:29;;;;;;;7.78;3.55;;;;;;;;;;5090904;28;20520;-71
2022/03/15 13:21:56;;;;;;;8.38;3.47;;;;;;;;;;5090651;28;20621;-69
2022/03/15 13:24:24;;;;;;;5.93;3.28;;;;;;;;;;5091020;28;20044;-69
2022/03/15 13:26:56;;;;;;;7.37;3.33;;;;;;;;;;5090850;28;20044;-69
2022/03/15 13:29:24;;;;;;;13.13;3.53;;;;;;;;;;5090619;28;20162;-69
2022/03/15 13:31:50;;;;;;;6.60;3.13;;;;;;;;;;5090376;28;20048;-69
2022/03/15 13:34:22;;;;;;;8.75;3.50;;;;;;;;;;5091024;28;20084;-70
2022/03/15 13:36:49;;;;;;;4.93;2.88;;;;;;;;;;5090846;28;20051;-70
2022/03/15 13:39:17;;;;;;;6.30;2.90;;;;;;;;;;5090534;28;20052;-70
2022/03/15 13:41:51;;;;;;;5.45;2.95;;;;;;;;;;5072385;28;20044;-70
2022/03/15 13:44:25;;;;;;;6.88;3.22;;;;;;;;;;5090482;28;20454;-69
2022/03/15 13:47:04;;;;;;;4.72;2.53;;;;;;;;;;5090582;28;20461;-70
2022/03/15 13:49:31;;;;;;;7.27;3.10;;;;;;;;;;5072752;28;20048;-70
2022/03/15 13:52:04;;;;;;;3.72;2.20;;;;;;;;;;5090282;28;20345;-69
2022/03/15 13:54:31;;;;;;;5.55;2.83;;;;;;;;;;5091195;28;20066;-69
2022/03/15 13:56:58;;;;;;;5.97;2.95;;;;;;;;;;5091693;28;20359;-69
2022/03/15 13:59:28;;;;;;;4.88;2.95;;;;;;;;;;5090211;28;20052;-68
2022/03/15 14:01:59;;;;;;;4.35;2.60;;;;;;;;;;5071761;28;20048;-68
2022/03/15 14:04:29;;;;;;;4.03;2.65;;;;;;;;;;5090345;28;20051;-69
2022/03/15 14:07:00;;;;;;;4.40;2.83;;;;;;;;;;5070386;28;20048;-68
2022/03/15 14:09:27;;;;;;;4.80;3.03;;;;;;;;;;5070082;28;20056;-68
2022/03/15 14:12:08;;;;;;;4.78;2.80;;;;;;;;;;5069461;28;20094;-68
2022/03/15 14:14:54;;;;;;;12.15;3.25;;;;;;;;;;5069614;28;20044;-70
2022/03/15 14:17:26;;;;;;;8.52;2.90;;;;;;;;;;5051906;28;20113;-70
2022/03/15 14:19:55;;;;;;;13.50;2.80;;;;;;;;;;5075632;28;20051;-73
2022/03/15 14:22:23;;;;;;;9.68;3.17;;;;;;;;;;5090459;28;20058;-73
2022/03/15 14:24:50;;;;;;;10.43;2.95;;;;;;;;;;5088810;28;20052;-73
2022/03/15 14:27:16;;;;;;;9.30;2.90;;;;;;;;;;5089405;28;20430;-73
2022/03/15 14:29:53;;;;;;;8.88;2.58;;;;;;;;;;5089234;28;20091;-73
2022/03/15 14:32:20;;;;;;;4.45;2.60;;;;;;;;;;5089024;28;20048;-73
2022/03/15 14:34:55;;;;;;;6.10;2.28;;;;;;;;;;5089598;28;20052;-73
2022/03/15 14:37:23;;;;;;;5.68;2.53;;;;;;;;;;5088840;28;20105;-73
2022/03/15 14:39:50;;;;;;;4.90;2.80;;;;;;;;;;5089600;28;20044;-68
2022/03/15 14:42:17;;;;;;;4.57;2.40;;;;;;;;;;5089634;28;20409;-67
2022/03/15 14:44:44;;;;;;;5.03;2.05;;;;;;;;;;5070653;28;20637;-67
2022/03/15 14:47:15;;;;;;;7.55;2.70;;;;;;;;;;5071550;28;20040;-68
2022/03/15 14:49:42;;;;;;;8.10;2.72;;;;;;;;;;5089414;28;20055;-68